^^
Saratoga-Weather Station Historical Data
Daily Summary for May 5, 2020 Units:  Both    English   Metric
Daily Weekly Monthly Yearly Custom
  High: Low: Average:
Temperature: 38.1 °F /  3.4 °C 34.5 °F /  1.4 °C 36.3 °F /  2.4 °C
Dew Point: 37.2 °F /  2.9 °C 33.4 °F /  0.8 °C 35.2 °F /  1.8 °C
Humidity: 97% 93% 96%
Wind Speed: 2.9mph /  4.7km/h - 0.3mph /  0.5km/h
Wind Gust: 4mph /  6.4km/h - -
Wind- - SSE
Pressure: 29.5 in /  998.0 hPa 29.2 in /  990.2 hPa -
Precipitation: 0.01 in /  0.2 mm    
Historical Graphs
 
 
Tabular Data for May 5, 2020
Time Temperature Dew Point Pressure Wind Wind Speed Wind Gust Humidity Rainfall Rate (Hourly) solar
00:04 34.9 °F /  1.6 °C 34.2 °F /  1.2 °C 29.2in /  990.2hPa Calm     97% 0in /  0.0mm 0 W/m2
00:09 34.9 °F /  1.6 °C 34.2 °F /  1.2 °C 29.3in /  990.5hPa Calm     97% 0in /  0.0mm 0 W/m2
00:15 34.9 °F /  1.6 °C 34.2 °F /  1.2 °C 29.3in /  990.5hPa Calm     97% 0in /  0.0mm 0 W/m2
00:20 34.7 °F /  1.5 °C 34 °F /  1.1 °C 29.3in /  990.5hPa Calm     97% 0in /  0.0mm 0 W/m2
00:25 34.7 °F /  1.5 °C 34 °F /  1.1 °C 29.3in /  990.5hPa Calm     97% 0in /  0.0mm 0 W/m2
00:30 34.5 °F /  1.4 °C 33.8 °F /  1 °C 29.3in /  990.5hPa Calm     97% 0in /  0.0mm 0 W/m2
00:35 34.5 °F /  1.4 °C 33.8 °F /  1 °C 29.3in /  990.9hPa Calm     97% 0in /  0.0mm 0 W/m2
00:40 34.5 °F /  1.4 °C 33.4 °F /  0.8 °C 29.3in /  990.5hPa Calm     96% 0in /  0.0mm 0 W/m2
00:45 34.5 °F /  1.4 °C 33.4 °F /  0.8 °C 29.3in /  990.5hPa Calm     96% 0in /  0.0mm 0 W/m2
00:50 34.7 °F /  1.5 °C 33.6 °F /  0.9 °C 29.3in /  990.5hPa East 0.9mph /  1.4km/h 1mph /  1.6km/h 96% 0in /  0.0mm 0 W/m2
00:55 34.7 °F /  1.5 °C 33.6 °F /  0.9 °C 29.2in /  990.2hPa East 2mph /  3.2km/h 2mph /  3.2km/h 96% 0in /  0.0mm 0 W/m2
01:00 35.1 °F /  1.7 °C 34.3 °F /  1.3 °C 29.3in /  990.5hPa Calm   2mph /  3.2km/h 97% 0in /  0.0mm 0 W/m2
01:05 35.1 °F /  1.7 °C 34.3 °F /  1.3 °C 29.3in /  990.5hPa Calm     97% 0in /  0.0mm 0 W/m2
01:10 35.2 °F /  1.8 °C 34.5 °F /  1.4 °C 29.3in /  990.5hPa Calm   1mph /  1.6km/h 97% 0in /  0.0mm 0 W/m2
01:15 35.2 °F /  1.8 °C 34.5 °F /  1.4 °C 29.3in /  990.5hPa WSW 0.9mph /  1.4km/h 1mph /  1.6km/h 97% 0in /  0.0mm 0 W/m2
01:20 35.2 °F /  1.8 °C 34.5 °F /  1.4 °C 29.3in /  990.5hPa Calm     97% 0in /  0.0mm 0 W/m2
01:25 35.2 °F /  1.8 °C 34.5 °F /  1.4 °C 29.3in /  990.5hPa Calm     97% 0in /  0.0mm 0 W/m2
01:30 35.2 °F /  1.8 °C 34.5 °F /  1.4 °C 29.3in /  990.9hPa Calm     97% 0in /  0.0mm 0 W/m2
01:35 35.1 °F /  1.7 °C 34.3 °F /  1.3 °C 29.3in /  990.9hPa Calm     97% 0in /  0.0mm 0 W/m2
01:40 35.1 °F /  1.7 °C 34.3 °F /  1.3 °C 29.3in /  990.9hPa Calm     97% 0in /  0.0mm 0 W/m2
01:45 35.1 °F /  1.7 °C 34.3 °F /  1.3 °C 29.3in /  990.9hPa Calm     97% 0in /  0.0mm 0 W/m2
01:50 35.1 °F /  1.7 °C 34.3 °F /  1.3 °C 29.3in /  990.9hPa Calm     97% 0in /  0.0mm 0 W/m2
01:55 34.9 °F /  1.6 °C 34.2 °F /  1.2 °C 29.3in /  990.9hPa Calm     97% 0in /  0.0mm 0 W/m2
02:00 34.9 °F /  1.6 °C 34.2 °F /  1.2 °C 29.3in /  990.9hPa Calm     97% 0in /  0.0mm 0 W/m2
02:05 34.9 °F /  1.6 °C 34.2 °F /  1.2 °C 29.3in /  991.2hPa Calm     97% 0in /  0.0mm 0 W/m2
02:10 34.9 °F /  1.6 °C 34.2 °F /  1.2 °C 29.3in /  991.2hPa Calm     97% 0in /  0.0mm 0 W/m2
02:15 34.9 °F /  1.6 °C 34.2 °F /  1.2 °C 29.3in /  991.5hPa Calm     97% 0in /  0.0mm 0 W/m2
02:20 34.9 °F /  1.6 °C 34.2 °F /  1.2 °C 29.3in /  991.5hPa Calm     97% 0in /  0.0mm 0 W/m2
02:25 34.9 °F /  1.6 °C 34.2 °F /  1.2 °C 29.3in /  991.5hPa Calm     97% 0in /  0.0mm 0 W/m2
02:30 34.9 °F /  1.6 °C 34.2 °F /  1.2 °C 29.3in /  991.5hPa Calm     97% 0in /  0.0mm 0 W/m2
02:35 34.9 °F /  1.6 °C 34.2 °F /  1.2 °C 29.3in /  991.5hPa Calm     97% 0in /  0.0mm 0 W/m2
02:40 35.1 °F /  1.7 °C 34.3 °F /  1.3 °C 29.3in /  991.9hPa Calm     97% 0in /  0.0mm 0 W/m2
02:45 35.1 °F /  1.7 °C 34.3 °F /  1.3 °C 29.3in /  991.9hPa Calm     97% 0in /  0.0mm 0 W/m2
02:50 35.1 °F /  1.7 °C 34.3 °F /  1.3 °C 29.3in /  991.9hPa Calm     97% 0in /  0.0mm 0 W/m2
02:55 35.1 °F /  1.7 °C 34.3 °F /  1.3 °C 29.3in /  991.9hPa Calm     97% 0in /  0.0mm 0 W/m2
03:00 35.1 °F /  1.7 °C 34.3 °F /  1.3 °C 29.3in /  991.9hPa Calm     97% 0in /  0.0mm 0 W/m2
03:05 35.1 °F /  1.7 °C 34.3 °F /  1.3 °C 29.3in /  991.9hPa Calm     97% 0in /  0.0mm 0 W/m2
03:10 35.2 °F /  1.8 °C 34.5 °F /  1.4 °C 29.3in /  992.2hPa Calm     97% 0in /  0.0mm 0 W/m2
03:15 35.2 °F /  1.8 °C 34.5 °F /  1.4 °C 29.3in /  992.2hPa Calm     97% 0in /  0.0mm 0 W/m2
03:20 35.4 °F /  1.9 °C 34.7 °F /  1.5 °C 29.3in /  992.2hPa Calm     97% 0in /  0.0mm 0 W/m2
03:25 35.4 °F /  1.9 °C 34.7 °F /  1.5 °C 29.3in /  992.2hPa Calm     97% 0in /  0.0mm 0 W/m2
03:30 35.6 °F /  2 °C 34.9 °F /  1.6 °C 29.3in /  992.2hPa Calm     97% 0in /  0.0mm 0 W/m2
03:35 35.6 °F /  2 °C 34.9 °F /  1.6 °C 29.3in /  992.2hPa Calm     97% 0in /  0.0mm 0 W/m2
03:40 35.8 °F /  2.1 °C 35.1 °F /  1.7 °C 29.3in /  992.2hPa SW 0.9mph /  1.4km/h 2mph /  3.2km/h 97% 0in /  0.0mm 0 W/m2
03:45 35.8 °F /  2.1 °C 35.1 °F /  1.7 °C 29.3in /  992.2hPa East 2.9mph /  4.7km/h 3mph /  4.8km/h 97% 0in /  0.0mm 0 W/m2
03:50 36 °F /  2.2 °C 35.2 °F /  1.8 °C 29.3in /  992.5hPa East 2mph /  3.2km/h 2mph /  3.2km/h 97% 0.01in /  0.2mm 0 W/m2
03:55 36.1 °F /  2.3 °C 35.4 °F /  1.9 °C 29.3in /  992.5hPa ESE 0.9mph /  1.4km/h 2mph /  3.2km/h 97% 0.01in /  0.2mm 0 W/m2
04:00 36.1 °F /  2.3 °C 35.4 °F /  1.9 °C 29.3in /  992.5hPa Calm     97% 0.01in /  0.2mm 0 W/m2
04:05 36.1 °F /  2.3 °C 35.4 °F /  1.9 °C 29.3in /  992.5hPa Calm   2mph /  3.2km/h 97% 0.01in /  0.2mm 0 W/m2
04:10 36 °F /  2.2 °C 35.2 °F /  1.8 °C 29.3in /  992.5hPa ENE 2mph /  3.2km/h 2mph /  3.2km/h 97% 0.01in /  0.2mm 0 W/m2
04:15 36 °F /  2.2 °C 35.2 °F /  1.8 °C 29.3in /  992.5hPa Calm     97% 0.01in /  0.2mm 0 W/m2
04:20 35.8 °F /  2.1 °C 35.1 °F /  1.7 °C 29.3in /  992.5hPa Calm   2mph /  3.2km/h 97% 0.01in /  0.2mm 0 W/m2
04:25 35.6 °F /  2 °C 34.9 °F /  1.6 °C 29.3in /  992.5hPa Calm     97% 0.01in /  0.2mm 0 W/m2
04:30 35.4 °F /  1.9 °C 34.7 °F /  1.5 °C 29.3in /  992.9hPa Calm     97% 0.01in /  0.2mm 0 W/m2
04:35 35.6 °F /  2 °C 34.9 °F /  1.6 °C 29.3in /  992.9hPa ESE 0.9mph /  1.4km/h 1mph /  1.6km/h 97% 0.01in /  0.2mm 0 W/m2
04:40 35.8 °F /  2.1 °C 35.1 °F /  1.7 °C 29.3in /  992.9hPa ESE 0.9mph /  1.4km/h 1mph /  1.6km/h 97% 0.01in /  0.2mm 0 W/m2
04:45 35.8 °F /  2.1 °C 35.1 °F /  1.7 °C 29.3in /  992.9hPa Calm     97% 0.01in /  0.2mm 0 W/m2
04:50 36 °F /  2.2 °C 35.2 °F /  1.8 °C 29.3in /  993.2hPa Calm     97% 0in /  0.0mm 0 W/m2
04:55 36 °F /  2.2 °C 35.2 °F /  1.8 °C 29.3in /  993.2hPa Calm     97% 0in /  0.0mm 0 W/m2
05:00 36.1 °F /  2.3 °C 35.4 °F /  1.9 °C 29.3in /  993.2hPa Calm     97% 0in /  0.0mm 0 W/m2
05:05 36.1 °F /  2.3 °C 35.4 °F /  1.9 °C 29.3in /  993.2hPa WSW 0.9mph /  1.4km/h 2mph /  3.2km/h 97% 0in /  0.0mm 0 W/m2
05:10 36.3 °F /  2.4 °C 35.6 °F /  2 °C 29.3in /  993.2hPa NW 2mph /  3.2km/h 2mph /  3.2km/h 97% 0in /  0.0mm 0 W/m2
05:15 36.9 °F /  2.7 °C 36.1 °F /  2.3 °C 29.3in /  993.6hPa NNW 0.9mph /  1.4km/h 2mph /  3.2km/h 97% 0in /  0.0mm 0 W/m2
05:20 36.9 °F /  2.7 °C 36.1 °F /  2.3 °C 29.3in /  993.6hPa Calm   1mph /  1.6km/h 97% 0in /  0.0mm 0 W/m2
05:25 37 °F /  2.8 °C 36.3 °F /  2.4 °C 29.3in /  993.6hPa Calm   1mph /  1.6km/h 97% 0in /  0.0mm 0 W/m2
05:30 37 °F /  2.8 °C 36.3 °F /  2.4 °C 29.3in /  993.6hPa WNW 2mph /  3.2km/h 4mph /  6.4km/h 97% 0in /  0.0mm 0 W/m2
05:35 37.2 °F /  2.9 °C 36.5 °F /  2.5 °C 29.3in /  993.6hPa Calm   2mph /  3.2km/h 97% 0in /  0.0mm 0 W/m2
05:40 37.4 °F /  3 °C 36.7 °F /  2.6 °C 29.3in /  993.6hPa Calm   4mph /  6.4km/h 97% 0in /  0.0mm 0 W/m2
05:45 37.4 °F /  3 °C 36.7 °F /  2.6 °C 29.3in /  993.6hPa North 0.9mph /  1.4km/h 1mph /  1.6km/h 97% 0in /  0.0mm 0 W/m2
05:50 37.4 °F /  3 °C 36.7 °F /  2.6 °C 29.4in /  993.9hPa Calm   1mph /  1.6km/h 97% 0in /  0.0mm 0 W/m2
05:55 37.4 °F /  3 °C 36.7 °F /  2.6 °C 29.4in /  993.9hPa Calm   1mph /  1.6km/h 97% 0in /  0.0mm 0 W/m2
06:01 37.4 °F /  3 °C 36.7 °F /  2.6 °C 29.4in /  993.9hPa North 2mph /  3.2km/h 3mph /  4.8km/h 97% 0in /  0.0mm 0 W/m2
06:06 37.6 °F /  3.1 °C 36.9 °F /  2.7 °C 29.4in /  993.9hPa Calm   1mph /  1.6km/h 97% 0in /  0.0mm 0 W/m2
06:11 37.6 °F /  3.1 °C 36.9 °F /  2.7 °C 29.4in /  994.2hPa North 0.9mph /  1.4km/h 3mph /  4.8km/h 97% 0in /  0.0mm 0 W/m2
06:16 37.6 °F /  3.1 °C 36.9 °F /  2.7 °C 29.4in /  994.2hPa Calm   1mph /  1.6km/h 97% 0in /  0.0mm 0 W/m2
06:21 37.6 °F /  3.1 °C 36.9 °F /  2.7 °C 29.4in /  994.2hPa Calm     97% 0in /  0.0mm 0 W/m2
06:26 37.6 °F /  3.1 °C 36.9 °F /  2.7 °C 29.4in /  994.6hPa Calm   1mph /  1.6km/h 97% 0in /  0.0mm 0 W/m2
06:31 37.6 °F /  3.1 °C 36.9 °F /  2.7 °C 29.4in /  994.6hPa Calm   1mph /  1.6km/h 97% 0in /  0.0mm 0 W/m2
06:36 37.6 °F /  3.1 °C 36.9 °F /  2.7 °C 29.4in /  994.6hPa ENE 0.9mph /  1.4km/h 2mph /  3.2km/h 97% 0in /  0.0mm 0 W/m2
06:41 37.6 °F /  3.1 °C 36.9 °F /  2.7 °C 29.4in /  994.9hPa Calm   1mph /  1.6km/h 97% 0in /  0.0mm 0 W/m2
06:46 37.6 °F /  3.1 °C 36.9 °F /  2.7 °C 29.4in /  994.9hPa Calm     97% 0in /  0.0mm 0 W/m2
06:51 37.6 °F /  3.1 °C 36.9 °F /  2.7 °C 29.4in /  994.9hPa Calm   1mph /  1.6km/h 97% 0in /  0.0mm 0 W/m2
06:56 37.2 °F /  2.9 °C 36.5 °F /  2.5 °C 29.4in /  995.3hPa Calm     97% 0in /  0.0mm 0 W/m2
07:01 37.2 °F /  2.9 °C 36.5 °F /  2.5 °C 29.4in /  995.3hPa ENE 0.9mph /  1.4km/h 2mph /  3.2km/h 97% 0in /  0.0mm 0 W/m2
07:06 37.2 °F /  2.9 °C 36.5 °F /  2.5 °C 29.4in /  995.3hPa Calm     97% 0in /  0.0mm 0 W/m2
07:11 37.4 °F /  3 °C 36.7 °F /  2.6 °C 29.4in /  995.3hPa Calm   3mph /  4.8km/h 97% 0in /  0.0mm 0 W/m2
07:16 37.4 °F /  3 °C 36.7 °F /  2.6 °C 29.4in /  995.3hPa NNE 2mph /  3.2km/h 2mph /  3.2km/h 97% 0in /  0.0mm 0 W/m2
07:21 37.6 °F /  3.1 °C 36.9 °F /  2.7 °C 29.4in /  995.6hPa Calm     97% 0in /  0.0mm 0 W/m2
07:26 37.8 °F /  3.2 °C 37 °F /  2.8 °C 29.4in /  995.6hPa North 0.9mph /  1.4km/h 1mph /  1.6km/h 97% 0in /  0.0mm 0 W/m2
07:31 37.9 °F /  3.3 °C 37.2 °F /  2.9 °C 29.4in /  995.6hPa Calm   1mph /  1.6km/h 97% 0in /  0.0mm 0 W/m2
07:36 37.9 °F /  3.3 °C 36.9 °F /  2.7 °C 29.4in /  995.9hPa Calm   1mph /  1.6km/h 96% 0in /  0.0mm 0 W/m2
07:41 37.9 °F /  3.3 °C 36.9 °F /  2.7 °C 29.4in /  995.6hPa Calm   1mph /  1.6km/h 96% 0in /  0.0mm 0 W/m2
07:46 37.9 °F /  3.3 °C 36.9 °F /  2.7 °C 29.4in /  995.9hPa Calm   1mph /  1.6km/h 96% 0in /  0.0mm 0 W/m2
07:51 38.1 °F /  3.4 °C 36.9 °F /  2.7 °C 29.4in /  995.9hPa WNW 2mph /  3.2km/h 3mph /  4.8km/h 95% 0in /  0.0mm 0 W/m2
07:56 38.1 °F /  3.4 °C 36.9 °F /  2.7 °C 29.4in /  995.9hPa Calm   1mph /  1.6km/h 95% 0in /  0.0mm 0 W/m2
08:01 38.1 °F /  3.4 °C 36.5 °F /  2.5 °C 29.4in /  995.9hPa Calm   1mph /  1.6km/h 94% 0in /  0.0mm 0 W/m2
08:06 38.1 °F /  3.4 °C 36.5 °F /  2.5 °C 29.4in /  996.3hPa Calm     94% 0in /  0.0mm 0 W/m2
08:11 38.1 °F /  3.4 °C 36.5 °F /  2.5 °C 29.4in /  996.3hPa Calm     94% 0in /  0.0mm 0 W/m2
08:16 37.9 °F /  3.3 °C 36.3 °F /  2.4 °C 29.4in /  996.3hPa NW 0.9mph /  1.4km/h 2mph /  3.2km/h 94% 0in /  0.0mm 0 W/m2
08:21 37.9 °F /  3.3 °C 36.3 °F /  2.4 °C 29.4in /  996.3hPa Calm   2mph /  3.2km/h 94% 0in /  0.0mm 0 W/m2
08:26 37.8 °F /  3.2 °C 36 °F /  2.2 °C 29.4in /  996.6hPa Calm     93% 0in /  0.0mm 5 W/m2
08:31 37.8 °F /  3.2 °C 36 °F /  2.2 °C 29.4in /  996.6hPa Calm     93% 0in /  0.0mm 5 W/m2
08:36 37.6 °F /  3.1 °C 35.8 °F /  2.1 °C 29.4in /  997.0hPa Calm     93% 0in /  0.0mm 12 W/m2
08:41 37.4 °F /  3 °C 35.8 °F /  2.1 °C 29.4in /  996.6hPa Calm   3mph /  4.8km/h 94% 0in /  0.0mm 16 W/m2
08:46 37.2 °F /  2.9 °C 35.6 °F /  2 °C 29.4in /  996.6hPa Calm   1mph /  1.6km/h 94% 0in /  0.0mm 18 W/m2
08:51 37 °F /  2.8 °C 35.4 °F /  1.9 °C 29.4in /  996.6hPa NE 2mph /  3.2km/h 2mph /  3.2km/h 94% 0in /  0.0mm 25 W/m2
08:56 37 °F /  2.8 °C 35.4 °F /  1.9 °C 29.4in /  997.0hPa Calm   1mph /  1.6km/h 94% 0in /  0.0mm 30 W/m2
09:01 37 °F /  2.8 °C 35.4 °F /  1.9 °C 29.4in /  997.0hPa Calm     94% 0in /  0.0mm 18 W/m2
09:06 37 °F /  2.8 °C 35.4 °F /  1.9 °C 29.4in /  997.0hPa Calm     94% 0in /  0.0mm 19 W/m2
09:11 36.9 °F /  2.7 °C 35.2 °F /  1.8 °C 29.4in /  997.0hPa Calm     94% 0in /  0.0mm 18 W/m2
09:16 36.7 °F /  2.6 °C 35.1 °F /  1.7 °C 29.4in /  997.0hPa Calm     94% 0in /  0.0mm 19 W/m2
09:21 36.5 °F /  2.5 °C 34.9 °F /  1.6 °C 29.5in /  997.3hPa Calm     94% 0in /  0.0mm 33 W/m2
09:26 36.3 °F /  2.4 °C 34.7 °F /  1.5 °C 29.5in /  997.3hPa Calm     94% 0in /  0.0mm 35 W/m2
09:31 36.1 °F /  2.3 °C 34.5 °F /  1.4 °C 29.5in /  997.3hPa Calm     94% 0in /  0.0mm 30 W/m2
09:36 36.1 °F /  2.3 °C 34.5 °F /  1.4 °C 29.5in /  997.6hPa Calm     94% 0in /  0.0mm 26 W/m2
09:41 36.1 °F /  2.3 °C 34.5 °F /  1.4 °C 29.5in /  997.3hPa ENE 2mph /  3.2km/h 3mph /  4.8km/h 94% 0in /  0.0mm 21 W/m2
09:46 36.1 °F /  2.3 °C 34.9 °F /  1.6 °C 29.5in /  997.3hPa SE 0.9mph /  1.4km/h 1mph /  1.6km/h 95% 0in /  0.0mm 21 W/m2
09:51 36.1 °F /  2.3 °C 34.9 °F /  1.6 °C 29.5in /  997.3hPa SE 0.9mph /  1.4km/h 3mph /  4.8km/h 95% 0in /  0.0mm 23 W/m2
09:56 36.1 °F /  2.3 °C 34.5 °F /  1.4 °C 29.5in /  997.6hPa Calm   1mph /  1.6km/h 94% 0in /  0.0mm 23 W/m2
10:01 36.1 °F /  2.3 °C 34.5 °F /  1.4 °C 29.5in /  997.6hPa Calm   2mph /  3.2km/h 94% 0in /  0.0mm 23 W/m2
10:06 36 °F /  2.2 °C 34.7 °F /  1.5 °C 29.5in /  997.6hPa Calm     95% 0in /  0.0mm 23 W/m2
10:11 36 °F /  2.2 °C 34.7 °F /  1.5 °C 29.5in /  997.6hPa Calm     95% 0in /  0.0mm 23 W/m2
10:16 36 °F /  2.2 °C 34.7 °F /  1.5 °C 29.5in /  998.0hPa Calm     95% 0in /  0.0mm 25 W/m2
10:21 36 °F /  2.2 °C 34.7 °F /  1.5 °C 29.5in /  998.0hPa SSE 2mph /  3.2km/h 3mph /  4.8km/h 95% 0in /  0.0mm 26 W/m2
Juneau County Weather
Compliments of Weather Underground - 2 mb